sensor_id;sensor_type;location;lat;lon;timestamp;temperature;humidity
33580;DHT22;19909;43.644;-79.438;2022-10-04T00:02:15;21.90;45.60
33580;DHT22;19909;43.644;-79.438;2022-10-04T00:04:50;21.90;45.60
33580;DHT22;19909;43.644;-79.438;2022-10-04T00:07:24;21.90;45.50
33580;DHT22;19909;43.644;-79.438;2022-10-04T00:10:15;21.90;45.40
33580;DHT22;19909;43.644;-79.438;2022-10-04T00:13:13;21.90;45.30
33580;DHT22;19909;43.644;-79.438;2022-10-04T00:15:35;21.90;45.60
33580;DHT22;19909;43.644;-79.438;2022-10-04T00:20:57;21.90;45.60
33580;DHT22;19909;43.644;-79.438;2022-10-04T00:23:28;21.90;45.50
33580;DHT22;19909;43.644;-79.438;2022-10-04T00:25:57;21.90;45.30
33580;DHT22;19909;43.644;-79.438;2022-10-04T00:33:45;21.90;45.60
33580;DHT22;19909;43.644;-79.438;2022-10-04T00:47:21;21.90;45.60
33580;DHT22;19909;43.644;-79.438;2022-10-04T00:49:52;21.90;45.50
33580;DHT22;19909;43.644;-79.438;2022-10-04T00:52:30;21.90;45.50
33580;DHT22;19909;43.644;-79.438;2022-10-04T00:55:03;21.90;45.30
33580;DHT22;19909;43.644;-79.438;2022-10-04T00:57:40;21.90;45.30
33580;DHT22;19909;43.644;-79.438;2022-10-04T01:00:19;21.90;45.70
33580;DHT22;19909;43.644;-79.438;2022-10-04T01:03:15;21.90;45.70
33580;DHT22;19909;43.644;-79.438;2022-10-04T01:05:48;21.90;45.70
33580;DHT22;19909;43.644;-79.438;2022-10-04T01:08:26;21.90;45.50
33580;DHT22;19909;43.644;-79.438;2022-10-04T01:11:04;21.90;45.30
33580;DHT22;19909;43.644;-79.438;2022-10-04T01:13:52;21.90;45.40
33580;DHT22;19909;43.644;-79.438;2022-10-04T01:18:50;21.90;45.70
33580;DHT22;19909;43.644;-79.438;2022-10-04T01:24:15;21.90;45.50
33580;DHT22;19909;43.644;-79.438;2022-10-04T01:26:43;21.90;45.40
33580;DHT22;19909;43.644;-79.438;2022-10-04T01:29:24;21.90;45.50
33580;DHT22;19909;43.644;-79.438;2022-10-04T01:31:57;21.90;45.70
33580;DHT22;19909;43.644;-79.438;2022-10-04T01:34:26;21.90;45.70
33580;DHT22;19909;43.644;-79.438;2022-10-04T01:36:57;21.90;45.60
33580;DHT22;19909;43.644;-79.438;2022-10-04T01:39:26;21.90;45.50
33580;DHT22;19909;43.644;-79.438;2022-10-04T01:42:09;21.90;45.30
33580;DHT22;19909;43.644;-79.438;2022-10-04T01:45:08;21.90;45.50
33580;DHT22;19909;43.644;-79.438;2022-10-04T01:47:47;21.90;45.70
33580;DHT22;19909;43.644;-79.438;2022-10-04T01:50:42;21.90;45.70
33580;DHT22;19909;43.644;-79.438;2022-10-04T01:53:27;21.90;45.70
33580;DHT22;19909;43.644;-79.438;2022-10-04T01:56:05;21.90;45.40
33580;DHT22;19909;43.644;-79.438;2022-10-04T01:58:49;21.90;45.40
33580;DHT22;19909;43.644;-79.438;2022-10-04T02:01:29;21.90;45.80
33580;DHT22;19909;43.644;-79.438;2022-10-04T02:04:08;21.90;45.80
33580;DHT22;19909;43.644;-79.438;2022-10-04T02:06:37;21.90;45.60
33580;DHT22;19909;43.644;-79.438;2022-10-04T02:09:14;21.90;45.40
33580;DHT22;19909;43.644;-79.438;2022-10-04T02:11:43;21.90;45.30
33580;DHT22;19909;43.644;-79.438;2022-10-04T02:14:18;21.90;45.50
33580;DHT22;19909;43.644;-79.438;2022-10-04T02:16:47;21.90;45.60
33580;DHT22;19909;43.644;-79.438;2022-10-04T02:19:18;21.90;45.60
33580;DHT22;19909;43.644;-79.438;2022-10-04T02:21:46;21.90;45.70
33580;DHT22;19909;43.644;-79.438;2022-10-04T02:24:13;21.90;45.40
33580;DHT22;19909;43.644;-79.438;2022-10-04T02:26:40;21.90;45.30
33580;DHT22;19909;43.644;-79.438;2022-10-04T02:29:08;21.90;45.40
33580;DHT22;19909;43.644;-79.438;2022-10-04T02:31:37;21.90;45.60
33580;DHT22;19909;43.644;-79.438;2022-10-04T02:34:22;21.90;45.70
33580;DHT22;19909;43.644;-79.438;2022-10-04T02:36:49;21.90;45.60
33580;DHT22;19909;43.644;-79.438;2022-10-04T02:39:27;21.90;45.40
33580;DHT22;19909;43.644;-79.438;2022-10-04T02:41:56;21.90;45.30
33580;DHT22;19909;43.644;-79.438;2022-10-04T02:47:17;21.90;45.70
33580;DHT22;19909;43.644;-79.438;2022-10-04T02:49:55;21.90;45.60
33580;DHT22;19909;43.644;-79.438;2022-10-04T02:52:34;21.90;45.60
33580;DHT22;19909;43.644;-79.438;2022-10-04T02:57:44;21.90;45.40
33580;DHT22;19909;43.644;-79.438;2022-10-04T03:00:30;21.90;45.60
33580;DHT22;19909;43.644;-79.438;2022-10-04T03:03:20;21.90;45.60
33580;DHT22;19909;43.644;-79.438;2022-10-04T03:08:42;21.90;45.30
33580;DHT22;19909;43.644;-79.438;2022-10-04T03:11:13;21.90;45.30
33580;DHT22;19909;43.644;-79.438;2022-10-04T03:13:45;21.90;45.20
33580;DHT22;19909;43.644;-79.438;2022-10-04T03:16:12;21.90;45.60
33580;DHT22;19909;43.644;-79.438;2022-10-04T03:18:39;21.90;45.70
33580;DHT22;19909;43.644;-79.438;2022-10-04T03:21:08;21.90;45.70
33580;DHT22;19909;43.644;-79.438;2022-10-04T03:23:38;21.90;45.50
33580;DHT22;19909;43.644;-79.438;2022-10-04T03:26:26;21.90;45.30
33580;DHT22;19909;43.644;-79.438;2022-10-04T03:28:57;21.90;45.40
33580;DHT22;19909;43.644;-79.438;2022-10-04T03:31:26;21.90;45.60
33580;DHT22;19909;43.644;-79.438;2022-10-04T03:33:56;21.90;45.70
33580;DHT22;19909;43.644;-79.438;2022-10-04T03:36:24;21.90;45.60
33580;DHT22;19909;43.644;-79.438;2022-10-04T03:38:53;21.90;45.40
33580;DHT22;19909;43.644;-79.438;2022-10-04T03:41:22;21.90;45.30
33580;DHT22;19909;43.644;-79.438;2022-10-04T03:43:53;21.90;45.20
33580;DHT22;19909;43.644;-79.438;2022-10-04T03:46:21;21.90;45.60
33580;DHT22;19909;43.644;-79.438;2022-10-04T03:48:51;21.90;45.60
33580;DHT22;19909;43.644;-79.438;2022-10-04T03:51:21;21.90;45.60
33580;DHT22;19909;43.644;-79.438;2022-10-04T03:53:58;21.90;45.30
33580;DHT22;19909;43.644;-79.438;2022-10-04T03:56:30;21.90;45.20
33580;DHT22;19909;43.644;-79.438;2022-10-04T03:58:57;21.90;45.20
33580;DHT22;19909;43.644;-79.438;2022-10-04T04:01:36;21.90;45.60
33580;DHT22;19909;43.644;-79.438;2022-10-04T04:04:24;21.90;45.60
33580;DHT22;19909;43.644;-79.438;2022-10-04T04:07:05;21.90;45.60
33580;DHT22;19909;43.644;-79.438;2022-10-04T04:12:05;21.80;45.30
33580;DHT22;19909;43.644;-79.438;2022-10-04T04:14:35;21.80;45.50
33580;DHT22;19909;43.644;-79.438;2022-10-04T04:17:43;21.90;45.70
33580;DHT22;19909;43.644;-79.438;2022-10-04T04:20:39;21.90;45.60
33580;DHT22;19909;43.644;-79.438;2022-10-04T04:23:27;21.90;45.40
33580;DHT22;19909;43.644;-79.438;2022-10-04T04:26:22;21.80;45.20
33580;DHT22;19909;43.644;-79.438;2022-10-04T04:28:50;21.90;45.30
33580;DHT22;19909;43.644;-79.438;2022-10-04T04:36:25;21.80;45.40
33580;DHT22;19909;43.644;-79.438;2022-10-04T04:38:53;21.80;45.10
33580;DHT22;19909;43.644;-79.438;2022-10-04T04:41:38;21.90;45.70
33580;DHT22;19909;43.644;-79.438;2022-10-04T04:44:15;21.90;45.30
33580;DHT22;19909;43.644;-79.438;2022-10-04T04:46:44;21.90;45.30
33580;DHT22;19909;43.644;-79.438;2022-10-04T04:49:13;21.80;45.40
33580;DHT22;19909;43.644;-79.438;2022-10-04T04:51:49;21.90;45.60
33580;DHT22;19909;43.644;-79.438;2022-10-04T04:54:19;21.90;45.10
33580;DHT22;19909;43.644;-79.438;2022-10-04T04:56:50;21.90;45.10
33580;DHT22;19909;43.644;-79.438;2022-10-04T04:59:19;21.90;45.10
33580;DHT22;19909;43.644;-79.438;2022-10-04T05:01:47;21.80;45.40
33580;DHT22;19909;43.644;-79.438;2022-10-04T05:06:42;21.90;45.40
33580;DHT22;19909;43.644;-79.438;2022-10-04T05:12:12;21.90;45.00
33580;DHT22;19909;43.644;-79.438;2022-10-04T05:14:43;21.90;45.10
33580;DHT22;19909;43.644;-79.438;2022-10-04T05:17:33;21.90;45.40
33580;DHT22;19909;43.644;-79.438;2022-10-04T05:20:00;21.90;45.40
33580;DHT22;19909;43.644;-79.438;2022-10-04T05:22:28;21.90;45.40
33580;DHT22;19909;43.644;-79.438;2022-10-04T05:25:08;21.90;45.10
33580;DHT22;19909;43.644;-79.438;2022-10-04T05:27:37;21.90;45.00
33580;DHT22;19909;43.644;-79.438;2022-10-04T05:35:21;21.80;45.50
33580;DHT22;19909;43.644;-79.438;2022-10-04T05:38:27;21.90;45.40
33580;DHT22;19909;43.644;-79.438;2022-10-04T05:40:59;21.90;45.10
33580;DHT22;19909;43.644;-79.438;2022-10-04T05:43:45;21.90;45.10
33580;DHT22;19909;43.644;-79.438;2022-10-04T05:46:32;21.80;45.50
33580;DHT22;19909;43.644;-79.438;2022-10-04T05:49:11;21.90;45.50
33580;DHT22;19909;43.644;-79.438;2022-10-04T05:51:50;21.80;45.40
33580;DHT22;19909;43.644;-79.438;2022-10-04T05:54:23;21.90;45.00
33580;DHT22;19909;43.644;-79.438;2022-10-04T06:00:15;21.80;45.10
33580;DHT22;19909;43.644;-79.438;2022-10-04T06:08:37;21.80;45.10
33580;DHT22;19909;43.644;-79.438;2022-10-04T06:19:43;21.80;45.40
33580;DHT22;19909;43.644;-79.438;2022-10-04T06:22:20;21.80;45.30
33580;DHT22;19909;43.644;-79.438;2022-10-04T06:25:08;21.80;45.10
33580;DHT22;19909;43.644;-79.438;2022-10-04T06:27:56;21.80;45.00
33580;DHT22;19909;43.644;-79.438;2022-10-04T06:30:23;21.90;45.40
33580;DHT22;19909;43.644;-79.438;2022-10-04T06:44:16;21.80;44.90
33580;DHT22;19909;43.644;-79.438;2022-10-04T06:49:50;21.80;45.30
33580;DHT22;19909;43.644;-79.438;2022-10-04T07:01:52;21.80;45.30
33580;DHT22;19909;43.644;-79.438;2022-10-04T07:04:20;21.80;45.30
33580;DHT22;19909;43.644;-79.438;2022-10-04T07:07:11;21.80;45.30
33580;DHT22;19909;43.644;-79.438;2022-10-04T07:10:26;21.80;45.10
33580;DHT22;19909;43.644;-79.438;2022-10-04T07:13:20;21.80;44.90
33580;DHT22;19909;43.644;-79.438;2022-10-04T07:19:21;21.80;45.30
33580;DHT22;19909;43.644;-79.438;2022-10-04T07:22:15;21.80;45.20
33580;DHT22;19909;43.644;-79.438;2022-10-04T07:27:33;21.80;45.00
33580;DHT22;19909;43.644;-79.438;2022-10-04T07:30:15;21.80;45.30
33580;DHT22;19909;43.644;-79.438;2022-10-04T07:32:46;21.80;45.20
33580;DHT22;19909;43.644;-79.438;2022-10-04T07:37:59;21.80;45.20
33580;DHT22;19909;43.644;-79.438;2022-10-04T07:40:41;21.80;45.10
33580;DHT22;19909;43.644;-79.438;2022-10-04T07:43:21;21.80;44.90
33580;DHT22;19909;43.644;-79.438;2022-10-04T07:45:49;21.80;45.30
33580;DHT22;19909;43.644;-79.438;2022-10-04T07:48:20;21.80;45.30
33580;DHT22;19909;43.644;-79.438;2022-10-04T07:53:48;21.80;45.10
33580;DHT22;19909;43.644;-79.438;2022-10-04T08:12:53;21.80;44.90
33580;DHT22;19909;43.644;-79.438;2022-10-04T08:15:32;21.80;45.20
33580;DHT22;19909;43.644;-79.438;2022-10-04T08:18:27;21.80;45.30
33580;DHT22;19909;43.644;-79.438;2022-10-04T08:21:05;21.80;45.20
33580;DHT22;19909;43.644;-79.438;2022-10-04T08:27:08;21.80;44.80
33580;DHT22;19909;43.644;-79.438;2022-10-04T08:32:28;21.80;45.20
33580;DHT22;19909;43.644;-79.438;2022-10-04T08:46:12;21.80;45.30
33580;DHT22;19909;43.644;-79.438;2022-10-04T08:57:13;21.80;44.90
33580;DHT22;19909;43.644;-79.438;2022-10-04T09:05:49;21.80;45.20
33580;DHT22;19909;43.644;-79.438;2022-10-04T09:16:52;21.70;45.20
33580;DHT22;19909;43.644;-79.438;2022-10-04T09:31:15;21.70;45.10
33580;DHT22;19909;43.644;-79.438;2022-10-04T09:39:34;21.80;44.90
33580;DHT22;19909;43.644;-79.438;2022-10-04T09:48:23;21.70;45.20
33580;DHT22;19909;43.644;-79.438;2022-10-04T09:51:12;21.80;45.20
33580;DHT22;19909;43.644;-79.438;2022-10-04T09:57:03;21.70;44.70
33580;DHT22;19909;43.644;-79.438;2022-10-04T09:59:56;21.70;44.90
33580;DHT22;19909;43.644;-79.438;2022-10-04T10:03:05;21.70;45.10
33580;DHT22;19909;43.644;-79.438;2022-10-04T10:23:22;21.70;44.90
33580;DHT22;19909;43.644;-79.438;2022-10-04T10:34:35;21.70;45.10
33580;DHT22;19909;43.644;-79.438;2022-10-04T10:40:24;21.70;44.70
33580;DHT22;19909;43.644;-79.438;2022-10-04T10:54:18;21.70;44.90
33580;DHT22;19909;43.644;-79.438;2022-10-04T11:00:42;21.70;44.90
33580;DHT22;19909;43.644;-79.438;2022-10-04T11:06:16;21.70;45.10
33580;DHT22;19909;43.644;-79.438;2022-10-04T11:20:39;21.70;45.10
33580;DHT22;19909;43.644;-79.438;2022-10-04T11:23:45;21.70;44.80
33580;DHT22;19909;43.644;-79.438;2022-10-04T11:32:04;21.70;45.00
33580;DHT22;19909;43.644;-79.438;2022-10-04T11:57:30;21.70;44.50
33580;DHT22;19909;43.644;-79.438;2022-10-04T12:05:44;21.70;44.90
33580;DHT22;19909;43.644;-79.438;2022-10-04T12:23:31;21.60;44.60
33580;DHT22;19909;43.644;-79.438;2022-10-04T12:29:29;21.70;44.60
33580;DHT22;19909;43.644;-79.438;2022-10-04T12:32:09;21.70;44.90
33580;DHT22;19909;43.644;-79.438;2022-10-04T12:34:50;21.60;44.90
33580;DHT22;19909;43.644;-79.438;2022-10-04T12:50:45;21.70;44.90
33580;DHT22;19909;43.644;-79.438;2022-10-04T12:53:40;21.70;44.60
33580;DHT22;19909;43.644;-79.438;2022-10-04T13:02:19;21.60;44.80
33580;DHT22;19909;43.644;-79.438;2022-10-04T13:13:23;21.60;44.70
33580;DHT22;19909;43.644;-79.438;2022-10-04T13:18:59;21.60;44.90
33580;DHT22;19909;43.644;-79.438;2022-10-04T13:21:47;21.60;44.80
33580;DHT22;19909;43.644;-79.438;2022-10-04T13:30:17;21.60;44.70
33580;DHT22;19909;43.644;-79.438;2022-10-04T13:38:43;21.60;44.60
33580;DHT22;19909;43.644;-79.438;2022-10-04T13:41:24;21.60;44.50
33580;DHT22;19909;43.644;-79.438;2022-10-04T13:50:26;21.60;44.90
33580;DHT22;19909;43.644;-79.438;2022-10-04T14:05:19;21.60;44.90
33580;DHT22;19909;43.644;-79.438;2022-10-04T14:17:32;21.60;45.00
33580;DHT22;19909;43.644;-79.438;2022-10-04T14:31:22;21.60;44.90
33580;DHT22;19909;43.644;-79.438;2022-10-04T14:45:15;21.60;44.60
33580;DHT22;19909;43.644;-79.438;2022-10-04T14:48:13;21.60;45.00
33580;DHT22;19909;43.644;-79.438;2022-10-04T14:58:57;21.60;44.60
33580;DHT22;19909;43.644;-79.438;2022-10-04T15:01:27;21.60;44.80
33580;DHT22;19909;43.644;-79.438;2022-10-04T15:23:15;21.60;44.70
33580;DHT22;19909;43.644;-79.438;2022-10-04T15:25:47;21.60;44.60
33580;DHT22;19909;43.644;-79.438;2022-10-04T15:37:02;21.60;44.70
33580;DHT22;19909;43.644;-79.438;2022-10-04T15:39:42;21.60;44.80
33580;DHT22;19909;43.644;-79.438;2022-10-04T15:47:54;21.60;44.60
33580;DHT22;19909;43.644;-79.438;2022-10-04T15:58:54;21.60;44.70
33580;DHT22;19909;43.644;-79.438;2022-10-04T16:01:35;21.70;44.80
33580;DHT22;19909;43.644;-79.438;2022-10-04T16:12:29;21.70;44.80
33580;DHT22;19909;43.644;-79.438;2022-10-04T16:20:53;21.70;44.90
33580;DHT22;19909;43.644;-79.438;2022-10-04T16:23:35;21.70;44.90
33580;DHT22;19909;43.644;-79.438;2022-10-04T16:26:11;21.60;44.80
33580;DHT22;19909;43.644;-79.438;2022-10-04T16:29:05;21.70;44.90
33580;DHT22;19909;43.644;-79.438;2022-10-04T16:31:46;21.60;44.90
33580;DHT22;19909;43.644;-79.438;2022-10-04T16:34:26;21.70;44.90
33580;DHT22;19909;43.644;-79.438;2022-10-04T16:45:36;21.60;44.90
33580;DHT22;19909;43.644;-79.438;2022-10-04T16:56:21;21.70;45.00
33580;DHT22;19909;43.644;-79.438;2022-10-04T16:59:00;21.60;44.90
33580;DHT22;19909;43.644;-79.438;2022-10-04T17:06:59;21.70;45.10
33580;DHT22;19909;43.644;-79.438;2022-10-04T17:09:32;21.60;45.10
33580;DHT22;19909;43.644;-79.438;2022-10-04T17:12:06;21.60;45.10
33580;DHT22;19909;43.644;-79.438;2022-10-04T17:20:28;21.70;45.30
33580;DHT22;19909;43.644;-79.438;2022-10-04T17:29:00;21.60;45.20
33580;DHT22;19909;43.644;-79.438;2022-10-04T17:37:21;21.70;45.30
33580;DHT22;19909;43.644;-79.438;2022-10-04T17:48:25;21.70;45.30
33580;DHT22;19909;43.644;-79.438;2022-10-04T17:51:26;21.70;45.40
33580;DHT22;19909;43.644;-79.438;2022-10-04T17:54:33;21.70;45.30
33580;DHT22;19909;43.644;-79.438;2022-10-04T18:02:53;21.70;45.40
33580;DHT22;19909;43.644;-79.438;2022-10-04T18:05:32;21.70;45.40
33580;DHT22;19909;43.644;-79.438;2022-10-04T18:11:00;21.70;45.30
33580;DHT22;19909;43.644;-79.438;2022-10-04T18:13:30;21.70;45.30
33580;DHT22;19909;43.644;-79.438;2022-10-04T18:16:25;21.70;45.40
33580;DHT22;19909;43.644;-79.438;2022-10-04T18:18:53;21.70;45.40
33580;DHT22;19909;43.644;-79.438;2022-10-04T18:21:30;21.70;46.00
33580;DHT22;19909;43.644;-79.438;2022-10-04T18:27:09;21.70;45.20
33580;DHT22;19909;43.644;-79.438;2022-10-04T18:30:16;21.70;45.40
33580;DHT22;19909;43.644;-79.438;2022-10-04T18:32:51;21.70;45.50
33580;DHT22;19909;43.644;-79.438;2022-10-04T18:35:24;21.70;45.50
33580;DHT22;19909;43.644;-79.438;2022-10-04T18:40:57;21.70;45.40
33580;DHT22;19909;43.644;-79.438;2022-10-04T18:43:34;21.70;45.30
33580;DHT22;19909;43.644;-79.438;2022-10-04T18:46:15;21.70;45.40
33580;DHT22;19909;43.644;-79.438;2022-10-04T18:48:58;21.70;45.60
33580;DHT22;19909;43.644;-79.438;2022-10-04T19:02:49;21.70;45.60
33580;DHT22;19909;43.644;-79.438;2022-10-04T19:05:48;21.70;45.60
33580;DHT22;19909;43.644;-79.438;2022-10-04T19:13:56;21.70;45.40
33580;DHT22;19909;43.644;-79.438;2022-10-04T19:22:34;21.70;45.90
33580;DHT22;19909;43.644;-79.438;2022-10-04T19:28:30;21.80;45.50
33580;DHT22;19909;43.644;-79.438;2022-10-04T19:39:27;21.70;45.70
33580;DHT22;19909;43.644;-79.438;2022-10-04T19:53:12;21.70;45.70
33580;DHT22;19909;43.644;-79.438;2022-10-04T19:56:00;21.70;45.60
33580;DHT22;19909;43.644;-79.438;2022-10-04T19:58:50;21.70;45.60
33580;DHT22;19909;43.644;-79.438;2022-10-04T20:01:19;21.80;45.80
33580;DHT22;19909;43.644;-79.438;2022-10-04T20:03:48;21.80;45.90
33580;DHT22;19909;43.644;-79.438;2022-10-04T20:06:36;21.70;45.80
33580;DHT22;19909;43.644;-79.438;2022-10-04T20:09:25;21.70;45.60
33580;DHT22;19909;43.644;-79.438;2022-10-04T20:11:54;21.80;45.60
33580;DHT22;19909;43.644;-79.438;2022-10-04T20:19:36;21.80;45.80
33580;DHT22;19909;43.644;-79.438;2022-10-04T20:30:01;21.80;45.80
33580;DHT22;19909;43.644;-79.438;2022-10-04T20:35:04;21.80;45.90
33580;DHT22;19909;43.644;-79.438;2022-10-04T20:45:50;21.80;45.80
33580;DHT22;19909;43.644;-79.438;2022-10-04T20:48:25;21.80;46.00
33580;DHT22;19909;43.644;-79.438;2022-10-04T20:50:53;21.80;46.00
33580;DHT22;19909;43.644;-79.438;2022-10-04T20:53:23;21.80;45.80
33580;DHT22;19909;43.644;-79.438;2022-10-04T20:56:06;21.80;45.70
33580;DHT22;19909;43.644;-79.438;2022-10-04T20:58:33;21.80;45.70
33580;DHT22;19909;43.644;-79.438;2022-10-04T21:01:03;21.80;45.90
33580;DHT22;19909;43.644;-79.438;2022-10-04T21:03:41;21.80;46.00
33580;DHT22;19909;43.644;-79.438;2022-10-04T21:06:09;21.80;46.00
33580;DHT22;19909;43.644;-79.438;2022-10-04T21:08:36;21.80;46.00
33580;DHT22;19909;43.644;-79.438;2022-10-04T21:11:07;21.80;45.70
33580;DHT22;19909;43.644;-79.438;2022-10-04T21:16:40;21.80;45.90
33580;DHT22;19909;43.644;-79.438;2022-10-04T21:21:59;21.80;46.00
33580;DHT22;19909;43.644;-79.438;2022-10-04T21:24:52;21.80;45.90
33580;DHT22;19909;43.644;-79.438;2022-10-04T21:27:33;21.80;45.80
33580;DHT22;19909;43.644;-79.438;2022-10-04T21:30:04;21.80;45.90
33580;DHT22;19909;43.644;-79.438;2022-10-04T21:32:35;21.80;46.00
33580;DHT22;19909;43.644;-79.438;2022-10-04T21:35:04;21.80;46.10
33580;DHT22;19909;43.644;-79.438;2022-10-04T21:37:31;21.80;46.00
33580;DHT22;19909;43.644;-79.438;2022-10-04T21:39:57;21.80;45.90
33580;DHT22;19909;43.644;-79.438;2022-10-04T21:42:24;21.80;45.80
33580;DHT22;19909;43.644;-79.438;2022-10-04T21:44:50;21.80;45.90
33580;DHT22;19909;43.644;-79.438;2022-10-04T21:47:17;21.80;46.00
33580;DHT22;19909;43.644;-79.438;2022-10-04T21:49:43;21.80;46.00
33580;DHT22;19909;43.644;-79.438;2022-10-04T21:52:09;21.80;46.00
33580;DHT22;19909;43.644;-79.438;2022-10-04T21:54:36;21.80;45.80
33580;DHT22;19909;43.644;-79.438;2022-10-04T21:57:02;21.80;45.80
33580;DHT22;19909;43.644;-79.438;2022-10-04T21:59:28;21.80;45.90
33580;DHT22;19909;43.644;-79.438;2022-10-04T22:01:54;21.80;46.00
33580;DHT22;19909;43.644;-79.438;2022-10-04T22:04:20;21.80;46.10
33580;DHT22;19909;43.644;-79.438;2022-10-04T22:06:47;21.80;46.00
33580;DHT22;19909;43.644;-79.438;2022-10-04T22:09:13;21.90;46.00
33580;DHT22;19909;43.644;-79.438;2022-10-04T22:11:39;21.80;45.80
33580;DHT22;19909;43.644;-79.438;2022-10-04T22:14:05;21.80;45.80
33580;DHT22;19909;43.644;-79.438;2022-10-04T22:16:31;21.80;46.10
33580;DHT22;19909;43.644;-79.438;2022-10-04T22:18:58;21.80;46.20
33580;DHT22;19909;43.644;-79.438;2022-10-04T22:21:25;21.80;46.10
33580;DHT22;19909;43.644;-79.438;2022-10-04T22:23:51;21.80;45.90
33580;DHT22;19909;43.644;-79.438;2022-10-04T22:26:19;21.80;45.80
33580;DHT22;19909;43.644;-79.438;2022-10-04T22:28:48;21.80;45.90
33580;DHT22;19909;43.644;-79.438;2022-10-04T22:31:17;21.80;46.10
33580;DHT22;19909;43.644;-79.438;2022-10-04T22:33:46;21.80;46.10
33580;DHT22;19909;43.644;-79.438;2022-10-04T22:39:10;21.80;46.00
33580;DHT22;19909;43.644;-79.438;2022-10-04T22:41:44;21.80;45.90
33580;DHT22;19909;43.644;-79.438;2022-10-04T22:44:18;21.80;46.00
33580;DHT22;19909;43.644;-79.438;2022-10-04T22:46:50;21.90;46.20
33580;DHT22;19909;43.644;-79.438;2022-10-04T22:49:25;21.80;46.30
33580;DHT22;19909;43.644;-79.438;2022-10-04T22:51:54;21.80;46.20
33580;DHT22;19909;43.644;-79.438;2022-10-04T22:54:24;21.80;46.60
33580;DHT22;19909;43.644;-79.438;2022-10-04T22:56:52;21.80;46.00
33580;DHT22;19909;43.644;-79.438;2022-10-04T22:59:31;21.80;46.10
33580;DHT22;19909;43.644;-79.438;2022-10-04T23:01:59;21.90;46.20
33580;DHT22;19909;43.644;-79.438;2022-10-04T23:04:30;21.80;46.10
33580;DHT22;19909;43.644;-79.438;2022-10-04T23:06:59;21.80;46.10
33580;DHT22;19909;43.644;-79.438;2022-10-04T23:09:26;21.80;46.00
33580;DHT22;19909;43.644;-79.438;2022-10-04T23:11:52;21.80;45.80
33580;DHT22;19909;43.644;-79.438;2022-10-04T23:14:18;21.90;45.90
33580;DHT22;19909;43.644;-79.438;2022-10-04T23:16:45;21.90;46.10
33580;DHT22;19909;43.644;-79.438;2022-10-04T23:19:15;21.80;46.30
33580;DHT22;19909;43.644;-79.438;2022-10-04T23:21:48;21.90;46.10
33580;DHT22;19909;43.644;-79.438;2022-10-04T23:24:17;21.80;46.00
33580;DHT22;19909;43.644;-79.438;2022-10-04T23:26:46;21.90;45.90
33580;DHT22;19909;43.644;-79.438;2022-10-04T23:29:25;21.90;46.00
33580;DHT22;19909;43.644;-79.438;2022-10-04T23:31:52;21.90;46.10
33580;DHT22;19909;43.644;-79.438;2022-10-04T23:34:36;21.80;46.10
33580;DHT22;19909;43.644;-79.438;2022-10-04T23:37:15;21.80;46.00
33580;DHT22;19909;43.644;-79.438;2022-10-04T23:39:42;21.90;45.90
33580;DHT22;19909;43.644;-79.438;2022-10-04T23:42:20;21.80;46.00
33580;DHT22;19909;43.644;-79.438;2022-10-04T23:44:49;21.90;46.10
33580;DHT22;19909;43.644;-79.438;2022-10-04T23:47:18;21.90;46.30
33580;DHT22;19909;43.644;-79.438;2022-10-04T23:49:47;21.90;46.10
33580;DHT22;19909;43.644;-79.438;2022-10-04T23:52:25;21.80;46.10
33580;DHT22;19909;43.644;-79.438;2022-10-04T23:54:55;21.90;46.00
33580;DHT22;19909;43.644;-79.438;2022-10-04T23:57:24;21.90;45.90
33580;DHT22;19909;43.644;-79.438;2022-10-04T23:59:52;21.80;46.00
